Time;durP1;ratioP1;P1;durP2;ratioP2;P2;SDS_P1;SDS_P2;PMS_P1;PMS_P2;Temp;Humidity;BMP_temperature;BMP_pressure;BME280_temperature;BME280_humidity;BME280_pressure;Samples;Min_cycle;Max_cycle;Signal;HPM_P1;HPM_P2
2021/12/21 00:01:08;;;;;;;6.37;5.10;;;3.00;99.90;;;;;;5077768;28;20515;-69
2021/12/21 00:03:35;;;;;;;8.93;5.17;;;3.00;99.90;;;;;;5077143;28;20956;-69
2021/12/21 00:06:02;;;;;;;9.47;5.30;;;3.00;99.90;;;;;;5077524;28;20785;-69
2021/12/21 00:08:28;;;;;;;9.10;5.73;;;3.00;99.90;;;;;;5077200;28;20761;-68
2021/12/21 00:10:58;;;;;;;7.20;5.90;;;3.00;99.90;;;;;;5077791;28;20458;-68
2021/12/21 00:13:38;;;;;;;8.87;5.80;;;3.00;99.90;;;;;;5077445;28;20873;-69
2021/12/21 00:16:14;;;;;;;9.33;6.23;;;3.00;99.90;;;;;;5077567;28;20511;-68
2021/12/21 00:18:46;;;;;;;8.80;6.53;;;3.10;99.90;;;;;;5077294;28;20446;-67
2021/12/21 00:21:23;;;;;;;9.50;6.27;;;3.10;99.90;;;;;;5077182;28;20460;-68
2021/12/21 00:23:55;;;;;;;10.43;5.37;;;3.10;99.90;;;;;;5077967;28;20469;-69
2021/12/21 00:26:23;;;;;;;9.60;6.57;;;3.10;99.90;;;;;;5077000;28;20461;-69
2021/12/21 00:28:55;;;;;;;10.67;6.77;;;3.10;99.90;;;;;;5077210;28;20454;-69
2021/12/21 00:31:23;;;;;;;8.07;5.30;;;3.10;99.90;;;;;;5077054;28;20975;-69
2021/12/21 00:33:50;;;;;;;9.03;5.10;;;3.10;99.90;;;;;;5077330;28;20492;-69
2021/12/21 00:36:19;;;;;;;9.47;5.03;;;3.10;99.90;;;;;;5077072;28;20454;-69
2021/12/21 00:38:47;;;;;;;6.47;5.13;;;3.10;99.90;;;;;;5076663;28;20493;-69
2021/12/21 00:41:15;;;;;;;10.70;5.93;;;3.10;99.90;;;;;;5076784;28;20462;-69
2021/12/21 00:43:44;;;;;;;7.30;4.90;;;3.00;99.90;;;;;;5076821;28;20458;-69
2021/12/21 00:46:11;;;;;;;5.77;4.83;;;3.00;99.90;;;;;;5078065;28;20458;-68
2021/12/21 00:48:47;;;;;;;8.33;4.47;;;3.00;99.90;;;;;;5083139;28;20787;-69
2021/12/21 00:51:13;;;;;;;9.43;4.73;;;3.00;99.90;;;;;;5077049;28;20453;-68
2021/12/21 00:53:40;;;;;;;6.10;4.63;;;2.90;99.90;;;;;;5078639;28;20811;-69
2021/12/21 00:56:07;;;;;;;5.90;4.90;;;2.90;99.90;;;;;;5077556;28;20469;-69
2021/12/21 00:58:34;;;;;;;10.37;5.77;;;2.80;99.90;;;;;;5078019;28;20469;-69
2021/12/21 01:01:04;;;;;;;6.10;4.70;;;2.80;99.90;;;;;;5076991;28;20910;-69
2021/12/21 01:03:31;;;;;;;12.63;5.60;;;2.80;99.90;;;;;;5076390;28;20489;-68
2021/12/21 01:06:06;;;;;;;8.30;4.60;;;2.70;99.90;;;;;;5075908;28;20867;-69
2021/12/21 01:08:44;;;;;;;4.73;3.70;;;2.70;99.90;;;;;;5076455;28;20438;-69
2021/12/21 01:11:15;;;;;;;10.23;4.83;;;2.70;99.90;;;;;;5076268;28;20521;-68
2021/12/21 01:13:52;;;;;;;7.50;4.63;;;2.70;99.90;;;;;;5075980;28;20993;-69
2021/12/21 01:16:28;;;;;;;7.57;5.03;;;2.60;99.90;;;;;;5076327;28;20441;-69
2021/12/21 01:19:05;;;;;;;9.93;5.10;;;2.60;99.90;;;;;;5076752;28;20438;-68
2021/12/21 01:21:36;;;;;;;11.47;5.93;;;2.60;99.90;;;;;;5076106;28;20452;-69
2021/12/21 01:24:17;;;;;;;9.93;5.80;;;2.60;99.90;;;;;;5075235;28;20485;-68
2021/12/21 01:26:57;;;;;;;7.07;4.67;;;2.60;99.90;;;;;;5075797;28;20442;-69
2021/12/21 01:29:31;;;;;;;9.10;5.10;;;2.50;99.90;;;;;;5075745;28;20434;-68
2021/12/21 01:32:06;;;;;;;9.30;5.77;;;2.50;99.90;;;;;;5075899;28;20503;-70
2021/12/21 01:37:22;;;;;;;9.70;5.77;;;2.50;99.90;;;;;;5075061;28;20457;-69
2021/12/21 01:40:03;;;;;;;9.60;6.10;;;2.50;99.90;;;;;;5075846;28;20529;-69
2021/12/21 01:42:45;;;;;;;7.00;5.73;;;2.40;99.90;;;;;;5075254;28;20456;-69
2021/12/21 01:50:41;;;;;;;9.80;5.90;;;2.40;99.90;;;;;;5075609;28;20596;-69
2021/12/21 01:53:08;;;;;;;8.73;5.60;;;2.40;99.90;;;;;;5075309;28;20819;-70
2021/12/21 01:55:35;;;;;;;11.27;5.50;;;2.50;99.90;;;;;;5074831;28;20942;-68
2021/12/21 01:58:02;;;;;;;10.50;6.83;;;2.50;99.90;;;;;;5075294;28;20461;-69
2021/12/21 02:00:29;;;;;;;9.73;5.90;;;2.50;99.90;;;;;;5075260;28;20491;-69
2021/12/21 02:02:57;;;;;;;10.10;6.33;;;2.50;99.90;;;;;;5075027;28;20759;-68
2021/12/21 02:05:24;;;;;;;9.23;5.80;;;2.60;99.90;;;;;;5074763;28;21013;-69
2021/12/21 02:07:51;;;;;;;8.53;5.97;;;2.60;99.90;;;;;;5075165;28;20497;-69
2021/12/21 02:10:17;;;;;;;9.70;5.83;;;2.60;99.90;;;;;;5075068;28;20495;-69
2021/12/21 02:12:44;;;;;;;8.07;6.10;;;2.60;99.90;;;;;;5074851;28;20797;-69
2021/12/21 02:15:11;;;;;;;10.27;6.10;;;2.70;99.90;;;;;;5075202;28;20520;-68
2021/12/21 02:18:11;;;;;;;9.30;6.47;;;2.70;99.90;;;;;;5074977;28;20458;-69
2021/12/21 02:20:45;;;;;;;10.53;7.10;;;2.70;99.90;;;;;;5074908;28;20442;-69
2021/12/21 02:23:15;;;;;;;9.40;7.00;;;2.60;99.90;;;;;;5074605;28;20513;-69
2021/12/21 02:31:27;;;;;;;9.70;6.53;;;2.60;99.90;;;;;;5054349;28;20461;-69
2021/12/21 02:33:54;;;;;;;14.03;7.43;;;2.60;99.90;;;;;;5074359;28;20482;-69
2021/12/21 02:36:22;;;;;;;11.27;6.50;;;2.60;99.90;;;;;;5074101;28;20459;-69
2021/12/21 02:38:49;;;;;;;11.10;7.60;;;2.50;99.90;;;;;;5074936;28;20465;-69
2021/12/21 02:41:16;;;;;;;13.30;7.93;;;2.50;99.90;;;;;;5074771;28;20454;-70
2021/12/21 02:43:43;;;;;;;15.67;7.47;;;2.50;99.90;;;;;;5074585;28;20468;-69
2021/12/21 02:46:10;;;;;;;11.80;7.50;;;2.50;99.90;;;;;;5074703;28;20462;-68
2021/12/21 02:48:37;;;;;;;12.87;7.83;;;2.50;99.90;;;;;;5074448;28;20461;-68
2021/12/21 02:51:04;;;;;;;11.70;7.33;;;2.50;99.90;;;;;;5074306;28;20911;-68
2021/12/21 02:53:32;;;;;;;12.97;9.10;;;2.40;99.90;;;;;;5074499;28;20478;-69
2021/12/21 02:55:59;;;;;;;10.90;7.30;;;2.40;99.90;;;;;;5074679;28;20465;-68
2021/12/21 02:58:25;;;;;;;13.63;8.20;;;2.30;99.90;;;;;;5074598;28;20465;-68
2021/12/21 03:00:54;;;;;;;9.83;8.27;;;2.40;99.90;;;;;;5074541;28;20875;-68
2021/12/21 03:03:21;;;;;;;13.03;7.80;;;2.40;99.90;;;;;;5074535;28;20459;-68
2021/12/21 03:05:51;;;;;;;11.63;7.67;;;2.40;99.90;;;;;;5075123;28;20453;-67
2021/12/21 03:08:22;;;;;;;16.90;8.20;;;2.40;99.90;;;;;;5074926;28;20439;-68
2021/12/21 03:11:06;;;;;;;13.07;8.23;;;2.40;99.90;;;;;;5074676;28;20438;-68
2021/12/21 03:13:55;;;;;;;11.63;7.50;;;2.40;99.90;;;;;;5074516;28;20774;-68
2021/12/21 03:16:22;;;;;;;13.43;8.03;;;2.40;99.90;;;;;;5074517;28;20449;-68
2021/12/21 03:18:49;;;;;;;14.10;7.30;;;2.50;99.90;;;;;;5074454;28;20484;-69
2021/12/21 03:21:16;;;;;;;11.00;8.07;;;2.50;99.90;;;;;;5074404;28;20462;-69
2021/12/21 03:23:43;;;;;;;11.70;8.07;;;2.50;99.90;;;;;;5074500;28;20450;-69
2021/12/21 03:26:11;;;;;;;13.20;8.60;;;2.50;99.90;;;;;;5073980;28;20906;-68
2021/12/21 03:28:37;;;;;;;10.07;7.57;;;2.50;99.90;;;;;;5074221;28;20462;-69
2021/12/21 03:31:05;;;;;;;10.83;7.57;;;2.50;99.90;;;;;;5074267;28;20538;-68
2021/12/21 03:33:31;;;;;;;11.13;8.20;;;2.50;99.90;;;;;;5074422;28;20551;-69
2021/12/21 03:36:00;;;;;;;13.20;9.07;;;2.50;99.90;;;;;;5074379;28;20458;-68
2021/12/21 03:38:27;;;;;;;12.27;8.23;;;2.30;99.90;;;;;;5074022;28;20972;-68
2021/12/21 03:41:01;;;;;;;12.47;8.20;;;2.30;99.90;;;;;;5073856;28;20486;-69
2021/12/21 03:43:30;;;;;;;14.73;8.87;;;2.30;99.90;;;;;;5074198;28;20439;-69
2021/12/21 03:46:04;;;;;;;17.97;9.07;;;2.30;99.90;;;;;;5074646;28;20564;-69
2021/12/21 03:48:31;;;;;;;12.87;8.53;;;2.30;99.90;;;;;;5077702;28;20512;-70
2021/12/21 03:50:58;;;;;;;13.00;8.50;;;2.30;99.90;;;;;;5077709;28;20489;-69
2021/12/21 03:53:25;;;;;;;17.50;10.17;;;2.30;99.90;;;;;;5077598;28;20458;-69
2021/12/21 03:56:02;;;;;;;10.20;8.27;;;2.30;99.90;;;;;;5077794;28;20461;-70
2021/12/21 03:58:30;;;;;;;15.40;9.70;;;2.30;99.90;;;;;;5077595;28;20445;-69
2021/12/21 04:00:57;;;;;;;14.73;9.77;;;2.30;99.90;;;;;;5077429;28;20469;-70
2021/12/21 04:03:24;;;;;;;12.80;8.50;;;2.20;99.90;;;;;;5077563;28;20462;-69
2021/12/21 04:05:50;;;;;;;14.80;10.20;;;2.20;99.90;;;;;;5077804;28;20443;-69
2021/12/21 04:08:17;;;;;;;15.77;10.77;;;2.20;99.90;;;;;;5077596;28;20465;-69
2021/12/21 04:10:44;;;;;;;14.37;9.07;;;2.30;99.90;;;;;;5077266;28;20789;-69
2021/12/21 04:13:11;;;;;;;12.93;9.23;;;2.30;99.90;;;;;;5077496;28;20458;-69
2021/12/21 04:15:43;;;;;;;17.77;9.80;;;2.30;99.90;;;;;;5076844;28;20488;-69
2021/12/21 04:18:10;;;;;;;11.37;9.00;;;2.30;99.90;;;;;;5077104;28;20967;-69
2021/12/21 04:20:37;;;;;;;17.13;10.57;;;2.30;99.90;;;;;;5077095;28;20577;-69
2021/12/21 04:23:04;;;;;;;21.03;10.37;;;2.30;99.90;;;;;;5077147;28;20994;-69
2021/12/21 04:25:31;;;;;;;17.63;9.50;;;2.30;99.90;;;;;;5077198;28;20458;-69
2021/12/21 04:27:57;;;;;;;16.13;10.57;;;2.30;99.90;;;;;;5077107;28;20773;-69
2021/12/21 04:30:24;;;;;;;13.00;10.20;;;2.30;99.90;;;;;;5077980;28;20469;-69
2021/12/21 04:32:53;;;;;;;17.27;9.77;;;2.40;99.90;;;;;;5077876;28;20776;-69
2021/12/21 04:35:20;;;;;;;18.63;12.13;;;2.40;99.90;;;;;;5078920;28;20481;-69
2021/12/21 04:37:52;;;;;;;21.80;11.80;;;2.40;99.90;;;;;;5079942;28;20526;-69
2021/12/21 04:40:22;;;;;;;19.87;11.70;;;2.40;99.90;;;;;;5079828;28;20446;-69
2021/12/21 04:42:49;;;;;;;18.40;11.53;;;2.40;99.90;;;;;;5078857;28;20455;-69
2021/12/21 04:45:15;;;;;;;20.67;11.03;;;2.40;99.90;;;;;;5078176;28;20892;-69
2021/12/21 04:47:42;;;;;;;13.70;9.70;;;2.40;99.90;;;;;;5078315;28;20524;-69
2021/12/21 04:50:11;;;;;;;16.47;10.87;;;2.40;99.90;;;;;;5079775;28;20523;-69
2021/12/21 04:52:38;;;;;;;19.30;11.10;;;2.50;99.90;;;;;;5077297;28;20477;-69
2021/12/21 04:55:05;;;;;;;16.27;11.70;;;2.50;99.90;;;;;;5076750;28;20509;-69
2021/12/21 04:57:32;;;;;;;15.90;10.47;;;2.50;99.90;;;;;;5075990;28;20535;-69
2021/12/21 04:59:58;;;;;;;19.67;10.63;;;2.50;99.90;;;;;;5076433;28;20459;-69
2021/12/21 05:02:25;;;;;;;16.40;11.47;;;2.50;99.90;;;;;;5076573;28;20450;-69
2021/12/21 05:04:52;;;;;;;19.37;11.90;;;2.60;99.90;;;;;;5076211;28;20466;-70
2021/12/21 05:07:23;;;;;;;16.30;10.17;;;2.50;99.90;;;;;;5076394;28;20484;-69
2021/12/21 05:09:56;;;;;;;15.30;9.80;;;2.60;99.90;;;;;;5076375;28;20442;-69
2021/12/21 05:12:23;;;;;;;15.47;10.97;;;2.60;99.90;;;;;;5075970;28;20964;-69
2021/12/21 05:14:50;;;;;;;15.77;10.80;;;2.60;99.90;;;;;;5076611;28;20482;-69
2021/12/21 05:17:17;;;;;;;14.17;9.57;;;2.60;99.90;;;;;;5076171;28;20528;-68
2021/12/21 05:19:44;;;;;;;13.47;9.10;;;2.60;99.90;;;;;;5076096;28;20454;-69
2021/12/21 05:22:11;;;;;;;12.20;9.83;;;2.70;99.90;;;;;;5076088;28;20461;-68
2021/12/21 05:24:39;;;;;;;17.20;10.27;;;2.70;99.90;;;;;;5075700;28;20512;-69
2021/12/21 05:27:06;;;;;;;15.80;9.03;;;2.60;99.90;;;;;;5075683;28;20454;-69
2021/12/21 05:29:33;;;;;;;12.90;9.43;;;2.70;99.90;;;;;;5075933;28;20777;-68
2021/12/21 05:32:00;;;;;;;14.97;9.57;;;2.60;99.90;;;;;;5075986;28;20484;-68
2021/12/21 05:34:27;;;;;;;15.83;9.40;;;2.60;99.90;;;;;;5075827;28;20977;-69
2021/12/21 05:36:54;;;;;;;17.43;8.50;;;2.60;99.90;;;;;;5075125;28;20466;-70
2021/12/21 05:39:24;;;;;;;14.27;8.80;;;2.70;99.90;;;;;;5075509;28;20466;-69
2021/12/21 05:41:54;;;;;;;18.80;10.70;;;2.70;99.90;;;;;;5075831;28;20467;-70
2021/12/21 05:44:23;;;;;;;10.83;8.27;;;2.60;99.90;;;;;;5075529;28;20445;-70
2021/12/21 05:46:51;;;;;;;17.60;9.53;;;2.70;99.90;;;;;;5075448;28;20899;-69
2021/12/21 05:49:18;;;;;;;14.33;8.47;;;2.70;99.90;;;;;;5075337;28;20496;-70
2021/12/21 05:51:46;;;;;;;13.43;8.37;;;2.70;99.90;;;;;;5075287;28;20470;-69
2021/12/21 05:54:13;;;;;;;15.80;8.63;;;2.70;99.90;;;;;;5075914;28;20481;-70
2021/12/21 05:56:40;;;;;;;13.63;9.00;;;2.70;99.90;;;;;;5079163;28;20488;-70
2021/12/21 05:59:08;;;;;;;15.40;9.80;;;2.60;99.90;;;;;;5078651;28;20485;-69
2021/12/21 06:01:38;;;;;;;10.93;7.90;;;2.60;99.90;;;;;;5076491;28;20767;-70
2021/12/21 06:04:05;;;;;;;12.17;8.03;;;2.60;99.90;;;;;;5074934;28;20934;-70
2021/12/21 06:06:32;;;;;;;14.47;8.30;;;2.60;99.90;;;;;;5075314;28;20458;-70
2021/12/21 06:09:02;;;;;;;14.40;8.57;;;2.60;99.90;;;;;;5075220;28;20549;-70
2021/12/21 06:11:31;;;;;;;16.73;8.67;;;2.60;99.90;;;;;;5075369;28;20449;-69
2021/12/21 06:14:15;;;;;;;14.53;8.20;;;2.70;99.90;;;;;;5075275;28;20562;-69
2021/12/21 06:25:34;;;;;;;10.67;7.40;;;2.70;99.90;;;;;;5075117;28;20421;-69
2021/12/21 06:28:01;;;;;;;13.27;8.47;;;2.70;99.90;;;;;;5075280;28;20448;-69
2021/12/21 06:30:30;;;;;;;13.47;8.47;;;2.70;99.90;;;;;;5074666;28;20520;-69
2021/12/21 06:32:58;;;;;;;11.73;7.90;;;2.70;99.90;;;;;;5075124;28;20777;-70
2021/12/21 06:35:25;;;;;;;9.40;7.20;;;2.70;99.90;;;;;;5075166;28;20797;-69
2021/12/21 06:37:52;;;;;;;11.17;7.57;;;2.80;99.90;;;;;;5074769;28;20759;-69
2021/12/21 06:40:20;;;;;;;16.97;8.77;;;2.80;99.90;;;;;;5074865;28;20465;-69
2021/12/21 06:42:50;;;;;;;9.83;7.00;;;2.70;99.90;;;;;;5073614;28;20457;-70
2021/12/21 06:45:27;;;;;;;9.83;7.43;;;2.70;99.90;;;;;;5074595;28;20705;-69
2021/12/21 06:53:25;;;;;;;13.47;8.03;;;2.70;99.90;;;;;;5074876;28;20434;-69
2021/12/21 06:55:52;;;;;;;17.03;8.00;;;2.70;99.90;;;;;;5074417;28;20486;-69
2021/12/21 06:58:18;;;;;;;11.43;6.80;;;2.70;99.90;;;;;;5074453;28;20914;-69
2021/12/21 07:00:47;;;;;;;13.47;8.07;;;2.70;99.90;;;;;;5074921;28;20462;-69
2021/12/21 07:03:14;;;;;;;11.87;7.90;;;2.70;99.90;;;;;;5074781;28;20450;-69
2021/12/21 07:05:42;;;;;;;12.30;8.03;;;2.70;99.90;;;;;;5074475;28;20455;-70
2021/12/21 07:08:14;;;;;;;14.27;9.30;;;2.70;99.90;;;;;;5074869;28;20486;-69
2021/12/21 07:10:44;;;;;;;12.43;8.10;;;2.70;99.90;;;;;;5075065;28;20471;-70
2021/12/21 07:18:40;;;;;;;14.03;8.37;;;2.80;99.90;;;;;;5074763;28;20428;-69
2021/12/21 07:21:08;;;;;;;10.80;7.60;;;2.80;99.90;;;;;;5075565;28;20458;-69
2021/12/21 07:23:34;;;;;;;12.27;8.20;;;2.90;99.90;;;;;;5079380;28;20457;-68
2021/12/21 07:26:01;;;;;;;11.40;7.97;;;2.90;99.90;;;;;;5078216;28;20465;-70
2021/12/21 07:28:28;;;;;;;11.23;7.60;;;2.90;99.90;;;;;;5078301;28;20473;-70
2021/12/21 07:30:56;;;;;;;10.33;6.77;;;2.90;99.90;;;;;;5078319;28;20466;-69
2021/12/21 07:33:22;;;;;;;15.20;7.50;;;2.90;99.90;;;;;;5078341;28;20450;-69
2021/12/21 07:35:49;;;;;;;6.77;5.90;;;2.90;99.90;;;;;;5078040;28;20516;-69
2021/12/21 07:38:19;;;;;;;8.77;6.60;;;2.90;99.90;;;;;;5078063;28;20461;-70
2021/12/21 07:40:46;;;;;;;7.80;5.80;;;2.90;99.90;;;;;;5077625;28;20490;-69
2021/12/21 07:43:13;;;;;;;11.37;7.40;;;2.90;99.90;;;;;;5077732;28;20466;-68
2021/12/21 07:45:40;;;;;;;10.27;7.80;;;2.90;99.90;;;;;;5077461;28;20458;-70
2021/12/21 07:48:07;;;;;;;12.90;7.60;;;2.90;99.90;;;;;;5077971;28;20515;-70
2021/12/21 07:50:35;;;;;;;11.27;8.03;;;2.90;99.90;;;;;;5077989;28;20461;-70
2021/12/21 07:53:02;;;;;;;12.67;7.60;;;2.90;99.90;;;;;;5077994;28;20466;-70
2021/12/21 07:55:30;;;;;;;13.60;7.93;;;2.90;99.90;;;;;;5077914;28;20603;-69
2021/12/21 07:57:57;;;;;;;15.23;8.50;;;3.00;99.90;;;;;;5078052;28;20454;-68
2021/12/21 08:00:24;;;;;;;13.63;7.63;;;3.00;99.90;;;;;;5077762;28;20513;-69
2021/12/21 08:02:50;;;;;;;11.63;7.13;;;3.00;99.90;;;;;;5077628;28;20465;-68
2021/12/21 08:05:18;;;;;;;11.17;7.27;;;3.00;99.90;;;;;;5077434;28;20478;-69
2021/12/21 08:07:50;;;;;;;10.50;7.50;;;3.00;99.90;;;;;;5077383;28;20473;-69
2021/12/21 08:10:28;;;;;;;12.27;7.40;;;3.10;99.90;;;;;;5077767;28;20442;-70
2021/12/21 08:12:57;;;;;;;11.80;8.53;;;3.10;99.90;;;;;;5078098;28;20438;-69
2021/12/21 08:15:27;;;;;;;11.30;8.10;;;3.10;99.90;;;;;;5078349;28;20490;-70
2021/12/21 08:17:54;;;;;;;12.17;7.70;;;3.00;99.90;;;;;;5078471;28;20450;-69
2021/12/21 08:20:21;;;;;;;13.53;8.93;;;3.10;99.90;;;;;;5077178;28;20519;-69
2021/12/21 08:22:48;;;;;;;14.80;8.40;;;3.10;99.90;;;;;;5077297;28;20458;-69
2021/12/21 08:25:15;;;;;;;14.90;8.70;;;3.10;99.90;;;;;;5077140;28;20549;-69
2021/12/21 08:27:42;;;;;;;13.07;8.30;;;3.10;99.90;;;;;;5076939;28;20469;-69
2021/12/21 08:30:11;;;;;;;13.43;8.70;;;3.10;99.90;;;;;;5077050;28;20469;-70
2021/12/21 08:32:38;;;;;;;13.40;8.23;;;3.00;99.90;;;;;;5077197;28;20454;-71
2021/12/21 08:35:06;;;;;;;13.87;8.63;;;2.90;99.90;;;;;;5076869;28;20492;-71
2021/12/21 08:37:34;;;;;;;12.83;8.90;;;2.90;99.90;;;;;;5077091;28;20832;-69
2021/12/21 08:40:00;;;;;;;11.43;7.40;;;2.90;99.90;;;;;;5077058;28;20468;-70
2021/12/21 08:42:28;;;;;;;14.27;7.80;;;2.90;99.90;;;;;;5076929;28;20445;-69
2021/12/21 08:44:56;;;;;;;13.60;9.67;;;2.80;99.90;;;;;;5076307;28;20931;-69
2021/12/21 08:47:25;;;;;;;11.40;6.90;;;2.80;99.90;;;;;;5076957;28;20484;-69
2021/12/21 08:49:54;;;;;;;16.73;9.37;;;2.80;99.90;;;;;;5076642;28;20516;-69
2021/12/21 08:52:21;;;;;;;10.50;7.93;;;2.80;99.90;;;;;;5076959;28;20454;-69
2021/12/21 08:54:47;;;;;;;15.70;9.47;;;2.80;99.90;;;;;;5076477;28;20453;-69
2021/12/21 08:57:14;;;;;;;13.03;8.50;;;2.80;99.90;;;;;;5076671;28;20466;-69
2021/12/21 08:59:41;;;;;;;14.83;9.10;;;2.80;99.90;;;;;;5077202;28;20454;-69
2021/12/21 09:02:08;;;;;;;12.97;8.10;;;2.90;99.90;;;;;;5077085;28;20474;-69
2021/12/21 09:04:36;;;;;;;15.77;8.70;;;2.90;99.90;;;;;;5076855;28;20516;-69
2021/12/21 09:07:04;;;;;;;15.07;8.57;;;3.00;99.90;;;;;;5077110;28;20838;-69
2021/12/21 09:09:30;;;;;;;12.70;7.97;;;3.00;99.90;;;;;;5076693;28;20454;-69
2021/12/21 09:11:57;;;;;;;15.87;8.40;;;3.00;99.90;;;;;;5076664;28;20461;-69
2021/12/21 09:14:27;;;;;;;11.20;8.57;;;3.00;99.90;;;;;;5076543;28;20473;-69
2021/12/21 09:16:54;;;;;;;11.50;8.30;;;2.80;99.90;;;;;;5076326;28;20529;-69
2021/12/21 09:19:20;;;;;;;12.00;7.57;;;2.80;99.90;;;;;;5076109;28;20489;-69
2021/12/21 09:21:48;;;;;;;10.77;7.50;;;2.90;99.90;;;;;;5076183;28;20897;-69
2021/12/21 09:24:15;;;;;;;14.13;9.23;;;2.90;99.90;;;;;;5076224;28;20463;-70
2021/12/21 09:26:43;;;;;;;14.87;9.17;;;2.90;99.90;;;;;;5075492;28;20930;-69
2021/12/21 09:29:09;;;;;;;11.77;8.50;;;2.90;99.90;;;;;;5075774;28;20816;-69
2021/12/21 09:31:36;;;;;;;10.33;8.27;;;2.90;99.90;;;;;;5076165;28;20934;-69
2021/12/21 09:34:03;;;;;;;11.73;8.93;;;2.90;99.90;;;;;;5075688;28;20458;-70
2021/12/21 09:36:30;;;;;;;10.87;8.80;;;2.90;99.90;;;;;;5075473;28;20489;-70
2021/12/21 09:38:58;;;;;;;16.90;9.80;;;3.00;99.90;;;;;;5076442;28;20457;-69
2021/12/21 09:41:25;;;;;;;12.27;8.70;;;3.00;99.90;;;;;;5075467;28;20465;-69
2021/12/21 09:43:52;;;;;;;13.70;8.77;;;3.00;99.90;;;;;;5075340;28;20819;-69
2021/12/21 09:46:19;;;;;;;14.80;9.70;;;3.10;99.90;;;;;;5075696;28;20465;-69
2021/12/21 09:48:45;;;;;;;12.50;8.23;;;3.20;99.90;;;;;;5075614;28;20466;-69
2021/12/21 09:51:12;;;;;;;12.90;8.47;;;3.20;99.90;;;;;;5075175;28;20451;-69
2021/12/21 09:53:39;;;;;;;16.27;8.80;;;3.10;99.90;;;;;;5075653;28;20458;-70
2021/12/21 09:56:08;;;;;;;12.07;8.17;;;3.20;99.90;;;;;;5075268;28;20785;-69
2021/12/21 09:58:35;;;;;;;17.77;8.80;;;3.20;99.90;;;;;;5075164;28;20462;-70
2021/12/21 10:01:03;;;;;;;16.03;10.67;;;3.30;99.90;;;;;;5075205;28;20465;-69
2021/12/21 10:03:30;;;;;;;17.27;9.40;;;3.30;99.90;;;;;;5075023;28;20461;-70
2021/12/21 10:06:04;;;;;;;15.30;9.43;;;3.30;99.90;;;;;;5075135;28;20435;-69
2021/12/21 10:08:33;;;;;;;12.30;8.00;;;3.30;99.90;;;;;;5076249;28;20447;-70
2021/12/21 10:11:00;;;;;;;13.77;9.90;;;3.30;99.90;;;;;;5075095;28;20458;-69
2021/12/21 10:13:29;;;;;;;11.23;8.60;;;3.40;99.90;;;;;;5075374;28;20519;-69
2021/12/21 10:15:57;;;;;;;16.50;10.70;;;3.40;99.90;;;;;;5074754;28;20482;-70
2021/12/21 10:18:26;;;;;;;15.40;8.10;;;3.30;99.90;;;;;;5074819;28;20457;-68
2021/12/21 10:20:55;;;;;;;14.17;9.43;;;3.30;99.90;;;;;;5074630;28;20919;-69
2021/12/21 10:23:24;;;;;;;11.83;9.13;;;3.30;99.90;;;;;;5074864;28;20469;-69
2021/12/21 10:25:53;;;;;;;13.77;9.23;;;3.20;99.90;;;;;;5074634;28;20477;-68
2021/12/21 10:28:30;;;;;;;15.77;9.00;;;3.20;99.90;;;;;;5075153;28;20450;-69
2021/12/21 10:30:59;;;;;;;16.43;10.10;;;3.20;99.90;;;;;;5074881;28;20453;-69
2021/12/21 10:33:28;;;;;;;18.43;8.90;;;3.10;99.90;;;;;;5074864;28;20458;-70
2021/12/21 10:35:56;;;;;;;13.90;8.53;;;3.00;99.90;;;;;;5074492;28;20968;-69
2021/12/21 10:38:33;;;;;;;18.83;9.90;;;3.00;99.90;;;;;;5075019;28;20465;-69
2021/12/21 10:41:19;;;;;;;17.43;10.40;;;3.10;99.90;;;;;;5074991;28;20435;-70
2021/12/21 10:43:57;;;;;;;17.67;9.10;;;3.10;99.90;;;;;;5074857;28;20486;-70
2021/12/21 10:46:29;;;;;;;16.93;10.57;;;3.20;99.90;;;;;;5074256;28;20891;-70
2021/12/21 10:49:06;;;;;;;17.90;9.30;;;3.20;99.90;;;;;;5074266;28;20449;-69
2021/12/21 10:51:33;;;;;;;15.97;10.07;;;3.20;99.90;;;;;;5074890;28;20448;-69
2021/12/21 10:54:00;;;;;;;15.27;9.60;;;3.30;99.90;;;;;;5074453;28;20961;-69
2021/12/21 10:56:27;;;;;;;16.70;11.20;;;3.30;99.90;;;;;;5075636;28;20474;-70
2021/12/21 10:58:55;;;;;;;16.00;10.63;;;3.30;99.90;;;;;;5078255;28;20937;-69
2021/12/21 11:01:27;;;;;;;14.53;9.27;;;3.20;99.90;;;;;;5078718;28;20469;-69
2021/12/21 11:03:56;;;;;;;12.93;9.33;;;3.20;99.90;;;;;;5078301;28;20481;-70
2021/12/21 11:06:27;;;;;;;23.27;12.10;;;3.20;99.90;;;;;;5078926;28;20454;-70
2021/12/21 11:08:56;;;;;;;16.80;10.73;;;3.20;99.90;;;;;;5078611;28;20782;-70
2021/12/21 11:11:28;;;;;;;16.87;10.63;;;3.30;99.90;;;;;;5078608;28;20539;-69
2021/12/21 11:14:08;;;;;;;17.57;10.73;;;3.40;99.90;;;;;;5078821;28;20449;-69
2021/12/21 11:16:40;;;;;;;14.20;10.43;;;3.50;99.90;;;;;;5079074;28;20469;-70
2021/12/21 11:19:08;;;;;;;16.23;10.33;;;3.60;99.90;;;;;;5081179;28;20779;-69
2021/12/21 11:21:35;;;;;;;15.03;9.63;;;3.60;99.90;;;;;;5082707;28;20458;-71
2021/12/21 11:24:05;;;;;;;17.13;10.10;;;3.60;99.90;;;;;;5080207;28;20449;-70
2021/12/21 11:26:33;;;;;;;13.40;9.80;;;3.50;99.90;;;;;;5078577;28;20865;-69
2021/12/21 11:29:03;;;;;;;15.80;10.20;;;3.50;99.90;;;;;;5078292;28;20466;-69
2021/12/21 11:31:32;;;;;;;13.63;9.50;;;3.40;99.90;;;;;;5081318;28;20461;-69
2021/12/21 11:34:00;;;;;;;18.03;9.23;;;3.40;99.90;;;;;;5082340;28;20492;-69
2021/12/21 11:39:13;;;;;;;16.53;10.80;;;3.40;99.90;;;;;;5078151;28;20425;-70
2021/12/21 11:41:42;;;;;;;12.00;8.90;;;3.40;99.90;;;;;;5077883;28;20545;-69
2021/12/21 11:44:15;;;;;;;12.40;8.60;;;3.40;99.90;;;;;;5077691;28;20895;-68
2021/12/21 11:46:53;;;;;;;20.23;10.03;;;3.40;99.90;;;;;;5077813;28;20442;-70
2021/12/21 11:49:31;;;;;;;12.23;8.27;;;3.40;99.90;;;;;;5077761;28;20448;-69
2021/12/21 11:52:13;;;;;;;20.20;10.07;;;3.30;99.90;;;;;;5077436;28;20453;-69
2021/12/21 11:54:49;;;;;;;16.17;9.60;;;3.30;99.90;;;;;;5077676;28;20479;-69
2021/12/21 11:57:18;;;;;;;14.77;9.27;;;3.20;99.90;;;;;;5077570;28;20489;-69
2021/12/21 11:59:49;;;;;;;12.67;8.83;;;3.20;99.90;;;;;;5077698;28;20454;-69
2021/12/21 12:02:28;;;;;;;19.73;12.30;;;3.20;99.90;;;;;;5077334;28;20462;-71
2021/12/21 12:04:56;;;;;;;19.43;11.53;;;3.20;99.90;;;;;;5076760;28;20481;-70
2021/12/21 12:07:23;;;;;;;13.63;8.80;;;3.20;99.90;;;;;;5077534;28;20501;-71
2021/12/21 12:10:05;;;;;;;12.63;8.70;;;3.20;99.90;;;;;;5078028;28;20454;-70
2021/12/21 12:12:32;;;;;;;18.43;8.67;;;3.30;99.90;;;;;;5077523;28;20458;-70
2021/12/21 12:15:01;;;;;;;14.80;8.37;;;3.30;99.90;;;;;;5077610;28;20464;-69
2021/12/21 12:17:30;;;;;;;12.80;7.60;;;3.30;99.90;;;;;;5077319;28;20577;-69
2021/12/21 12:20:03;;;;;;;11.17;7.53;;;3.40;99.90;;;;;;5077253;28;20454;-69
2021/12/21 12:22:34;;;;;;;11.10;8.00;;;3.40;99.90;;;;;;5077356;28;20525;-69
2021/12/21 12:25:01;;;;;;;13.23;8.40;;;3.30;99.90;;;;;;5076963;28;20446;-70
2021/12/21 12:27:30;;;;;;;18.03;8.20;;;3.30;99.90;;;;;;5076974;28;20548;-70
2021/12/21 12:29:59;;;;;;;32.70;18.47;;;3.30;99.90;;;;;;5077076;28;20458;-70
2021/12/21 12:32:35;;;;;;;18.00;8.87;;;3.40;99.90;;;;;;5076814;28;20929;-70
2021/12/21 12:35:04;;;;;;;11.43;7.93;;;3.40;99.90;;;;;;5076846;28;20454;-69
2021/12/21 12:37:31;;;;;;;11.93;8.07;;;3.40;99.90;;;;;;5076777;28;20482;-70
2021/12/21 12:40:07;;;;;;;12.43;8.60;;;3.40;99.90;;;;;;5077130;28;20485;-69
2021/12/21 12:42:34;;;;;;;11.60;7.93;;;3.40;99.90;;;;;;5076629;28;20894;-69
2021/12/21 12:45:10;;;;;;;12.20;9.10;;;3.30;99.90;;;;;;5076685;28;20555;-69
2021/12/21 12:47:42;;;;;;;12.00;7.80;;;3.20;99.90;;;;;;5076396;28;20444;-69
2021/12/21 12:50:17;;;;;;;9.80;7.70;;;3.10;99.90;;;;;;5076535;28;20439;-71
2021/12/21 12:52:53;;;;;;;22.20;8.53;;;3.10;99.90;;;;;;5076419;28;20439;-70
2021/12/21 12:55:20;;;;;;;12.50;8.40;;;3.10;99.90;;;;;;5076414;28;20462;-70
2021/12/21 12:57:53;;;;;;;13.23;8.80;;;3.10;99.90;;;;;;5076212;28;20482;-70
2021/12/21 13:00:23;;;;;;;15.53;8.90;;;3.00;99.90;;;;;;5076850;28;20771;-69
2021/12/21 13:02:57;;;;;;;13.70;7.93;;;3.00;99.90;;;;;;5076252;28;20443;-70
2021/12/21 13:05:33;;;;;;;18.90;7.73;;;2.90;99.90;;;;;;5076386;28;20522;-69
2021/12/21 13:08:12;;;;;;;14.10;8.67;;;2.80;99.90;;;;;;5076845;28;20438;-70
2021/12/21 13:10:40;;;;;;;12.10;7.60;;;2.80;99.90;;;;;;5075921;28;20945;-70
2021/12/21 13:13:07;;;;;;;10.53;7.00;;;2.70;99.90;;;;;;5076285;28;20478;-69
2021/12/21 13:15:38;;;;;;;10.17;7.17;;;2.70;99.90;;;;;;5075904;28;20913;-70
2021/12/21 13:18:13;;;;;;;14.67;7.70;;;2.70;99.90;;;;;;5076296;28;20980;-70
2021/12/21 13:20:41;;;;;;;12.17;8.70;;;2.60;99.90;;;;;;5074797;28;20933;-69
2021/12/21 13:23:10;;;;;;;11.00;7.97;;;2.60;99.90;;;;;;5075724;28;20523;-70
2021/12/21 13:25:37;;;;;;;11.50;7.97;;;2.60;99.90;;;;;;5075896;28;20454;-69
2021/12/21 13:28:12;;;;;;;19.87;10.63;;;2.60;99.90;;;;;;5075164;28;20446;-69
2021/12/21 13:30:46;;;;;;;13.93;9.57;;;2.60;99.90;;;;;;5076064;28;20454;-69
2021/12/21 13:33:22;;;;;;;18.90;11.40;;;2.60;99.90;;;;;;5076143;28;20739;-70
2021/12/21 13:35:49;;;;;;;19.80;11.83;;;2.70;99.90;;;;;;5076165;28;20824;-70